createdAt,value
2023-05-18T00:00:00.160Z,51.60
2023-05-18T00:02:30.470Z,51.70
2023-05-18T00:05:02.154Z,50.90
2023-05-18T00:07:34.252Z,50.90
2023-05-18T00:10:06.170Z,50.20
2023-05-18T00:12:34.484Z,50.70
2023-05-18T00:15:02.762Z,50.00
2023-05-18T00:17:33.788Z,49.90
2023-05-18T00:20:02.041Z,48.50
2023-05-18T00:22:30.404Z,48.90
2023-05-18T00:24:58.617Z,48.60
2023-05-18T00:27:26.945Z,47.90
2023-05-18T00:29:55.202Z,47.90
2023-05-18T00:32:23.470Z,47.90
2023-05-18T00:34:54.681Z,48.20
2023-05-18T00:37:24.304Z,47.90
2023-05-18T00:39:52.652Z,48.00
2023-05-18T00:42:21.177Z,47.90
2023-05-18T00:44:49.405Z,47.80
2023-05-18T00:47:18.494Z,47.90
2023-05-18T00:49:46.845Z,48.10
2023-05-18T00:52:17.013Z,48.40
2023-05-18T00:54:45.457Z,48.90
2023-05-18T00:57:15.978Z,48.60
2023-05-18T00:59:46.062Z,47.80
2023-05-18T01:02:15.009Z,48.50
2023-05-18T01:04:43.497Z,48.90
2023-05-18T01:07:12.904Z,48.80
2023-05-18T01:09:42.531Z,49.20
2023-05-18T01:12:19.508Z,49.00
2023-05-18T01:14:53.944Z,49.00
2023-05-18T01:17:33.610Z,49.10
2023-05-18T01:20:16.502Z,48.80
2023-05-18T01:23:10.220Z,49.40
2023-05-18T01:25:49.567Z,49.40
2023-05-18T01:28:22.056Z,49.00
2023-05-18T01:30:51.005Z,49.60
2023-05-18T01:33:19.462Z,50.10
2023-05-18T01:35:49.007Z,51.50
2023-05-18T01:38:18.762Z,51.50
2023-05-18T01:40:54.592Z,52.40
2023-05-18T01:43:29.959Z,52.10
2023-05-18T01:46:02.663Z,52.80
2023-05-18T01:48:32.038Z,51.90
2023-05-18T01:51:01.457Z,52.90
2023-05-18T01:53:39.173Z,53.60
2023-05-18T01:56:11.739Z,52.90
2023-05-18T01:58:42.311Z,52.70
2023-05-18T02:01:10.999Z,53.30
2023-05-18T02:03:39.539Z,53.40
2023-05-18T02:06:08.157Z,53.50
2023-05-18T02:08:36.790Z,53.10
2023-05-18T02:11:05.242Z,52.70
2023-05-18T02:13:33.537Z,54.10
2023-05-18T02:16:04.597Z,54.50
2023-05-18T02:18:34.131Z,54.00
2023-05-18T02:21:04.095Z,54.10
2023-05-18T02:23:33.906Z,54.20
2023-05-18T02:26:02.683Z,54.10
2023-05-18T02:28:31.203Z,53.80
2023-05-18T02:31:08.117Z,54.60
2023-05-18T02:33:40.031Z,54.70
2023-05-18T02:36:13.518Z,54.50
2023-05-18T02:38:44.601Z,54.40
2023-05-18T02:41:13.302Z,54.50
2023-05-18T02:43:41.747Z,54.30
2023-05-18T02:46:11.534Z,53.70
2023-05-18T02:48:39.769Z,53.60
2023-05-18T02:51:08.074Z,53.40
2023-05-18T02:53:36.706Z,53.50
2023-05-18T02:56:12.285Z,54.10
2023-05-18T02:58:48.241Z,53.90
2023-05-18T03:01:26.925Z,53.40
2023-05-18T03:03:57.758Z,53.10
2023-05-18T03:06:27.450Z,53.30
2023-05-18T03:08:57.036Z,52.40
2023-05-18T03:11:33.176Z,51.50
2023-05-18T03:14:01.480Z,52.10
2023-05-18T03:16:31.254Z,52.60
2023-05-18T03:19:01.911Z,52.50
2023-05-18T03:21:36.428Z,52.50
2023-05-18T03:24:05.263Z,52.60
2023-05-18T03:26:39.735Z,52.70
2023-05-18T03:29:08.017Z,52.70
2023-05-18T03:31:40.965Z,53.50
2023-05-18T03:34:10.810Z,54.00
2023-05-18T03:36:39.462Z,54.00
2023-05-18T03:39:08.486Z,53.00
2023-05-18T03:41:37.295Z,53.00
2023-05-18T03:44:05.637Z,53.50
2023-05-18T03:46:34.124Z,53.60
2023-05-18T03:49:05.011Z,53.50
2023-05-18T03:51:39.206Z,52.90
2023-05-18T03:54:07.490Z,53.70
2023-05-18T03:56:37.547Z,53.30
2023-05-18T03:59:06.536Z,53.30
2023-05-18T04:01:34.882Z,53.40
2023-05-18T04:04:04.738Z,53.50
2023-05-18T04:06:35.328Z,53.40
2023-05-18T04:09:04.701Z,53.50
2023-05-18T04:11:33.134Z,53.50
2023-05-18T04:14:01.927Z,52.70
2023-05-18T04:16:31.506Z,53.00
2023-05-18T04:19:00.468Z,52.50
2023-05-18T04:21:35.439Z,52.70
2023-05-18T04:24:05.149Z,52.50
2023-05-18T04:26:36.392Z,52.80
2023-05-18T04:29:04.768Z,52.80
2023-05-18T04:31:33.753Z,52.30
2023-05-18T04:34:02.158Z,52.20
2023-05-18T04:36:32.021Z,52.20
2023-05-18T04:39:00.907Z,51.70
2023-05-18T04:41:30.527Z,51.10
2023-05-18T04:44:00.925Z,51.10
2023-05-18T04:46:29.619Z,50.70
2023-05-18T04:48:58.977Z,50.70
2023-05-18T04:51:27.275Z,50.40
2023-05-18T04:53:57.022Z,50.00
2023-05-18T04:56:25.415Z,49.00
2023-05-18T04:58:53.695Z,49.40
2023-05-18T05:01:22.563Z,49.60
2023-05-18T05:03:51.012Z,49.60
2023-05-18T05:06:19.789Z,49.30
2023-05-18T05:08:48.238Z,49.40
2023-05-18T05:11:17.861Z,48.90
2023-05-18T05:13:46.329Z,49.00
2023-05-18T05:16:14.926Z,49.50
2023-05-18T05:18:44.208Z,49.00
2023-05-18T05:21:14.260Z,48.60
2023-05-18T05:23:42.630Z,48.20
2023-05-18T05:26:11.520Z,48.50
2023-05-18T05:28:41.284Z,48.00
2023-05-18T05:31:12.213Z,48.20
2023-05-18T05:33:40.879Z,47.40
2023-05-18T05:36:13.208Z,46.90
2023-05-18T05:38:42.204Z,47.60
2023-05-18T05:41:13.567Z,47.10
2023-05-18T05:43:43.543Z,47.00
2023-05-18T05:46:12.029Z,46.90
2023-05-18T05:48:41.030Z,46.80
2023-05-18T05:51:10.114Z,46.80
2023-05-18T05:53:38.511Z,47.00
2023-05-18T05:56:08.427Z,46.50
2023-05-18T05:58:39.672Z,46.90
2023-05-18T06:01:09.533Z,46.60
2023-05-18T06:03:38.829Z,47.40
2023-05-18T06:06:11.232Z,47.20
2023-05-18T06:08:39.746Z,47.00
2023-05-18T06:11:11.399Z,47.00
2023-05-18T06:13:43.940Z,46.10
2023-05-18T06:16:14.667Z,43.50
2023-05-18T06:18:43.354Z,43.10
2023-05-18T06:21:11.763Z,43.50
2023-05-18T06:23:41.984Z,44.80
2023-05-18T06:26:24.727Z,43.40
2023-05-18T06:29:17.961Z,44.60
2023-05-18T06:32:14.616Z,43.80
2023-05-18T06:34:46.053Z,44.80
2023-05-18T06:37:14.493Z,43.90
2023-05-18T06:39:44.422Z,43.90
2023-05-18T06:42:12.931Z,44.20
2023-05-18T06:44:53.760Z,43.70
2023-05-18T06:47:32.942Z,44.60
2023-05-18T06:50:01.546Z,44.20
2023-05-18T06:52:32.615Z,44.40
2023-05-18T06:55:01.289Z,44.00
2023-05-18T06:57:30.119Z,44.50
2023-05-18T07:00:02.089Z,44.00
2023-05-18T07:02:33.484Z,43.80
2023-05-18T07:05:05.492Z,44.30
2023-05-18T07:07:33.776Z,44.30
2023-05-18T07:10:02.028Z,43.90
2023-05-18T07:12:30.498Z,44.00
2023-05-18T07:15:01.700Z,44.20
2023-05-18T07:17:30.165Z,44.20
2023-05-18T07:19:59.765Z,44.00
2023-05-18T07:22:28.054Z,44.00
2023-05-18T07:24:56.669Z,44.40
2023-05-18T07:27:24.949Z,44.40
2023-05-18T07:29:53.851Z,43.60
2023-05-18T07:32:22.084Z,43.50
2023-05-18T07:34:53.491Z,44.40
2023-05-18T07:37:23.146Z,44.40
2023-05-18T07:39:51.670Z,44.60
2023-05-18T07:42:19.884Z,43.60
2023-05-18T07:44:48.240Z,43.10
2023-05-18T07:47:18.586Z,42.70
2023-05-18T07:49:46.795Z,42.80
2023-05-18T07:52:15.149Z,42.60
2023-05-18T07:54:44.965Z,42.30
2023-05-18T07:57:13.246Z,42.90
2023-05-18T07:59:41.636Z,42.60
2023-05-18T08:02:12.680Z,43.50
2023-05-18T08:04:41.182Z,42.90
2023-05-18T08:07:10.688Z,43.10
2023-05-18T08:09:39.563Z,42.50
2023-05-18T08:12:09.906Z,42.40
2023-05-18T08:14:38.199Z,44.00
2023-05-18T08:17:07.579Z,42.90
2023-05-18T08:19:37.223Z,42.90
2023-05-18T08:22:06.147Z,42.40
2023-05-18T08:24:34.360Z,43.40
2023-05-18T08:27:03.512Z,44.00
2023-05-18T08:29:34.403Z,43.80
2023-05-18T08:32:02.796Z,43.70
2023-05-18T08:34:31.070Z,44.10
2023-05-18T08:37:00.151Z,44.70
2023-05-18T08:39:31.658Z,43.50
2023-05-18T08:42:04.145Z,43.50
2023-05-18T08:44:41.192Z,44.00
2023-05-18T08:47:11.557Z,44.40
2023-05-18T08:49:43.932Z,45.00
2023-05-18T08:52:19.656Z,45.70
2023-05-18T08:54:48.087Z,44.90
2023-05-18T08:57:18.763Z,44.60
2023-05-18T08:59:49.855Z,45.60
2023-05-18T09:02:18.428Z,46.40
2023-05-18T09:04:48.757Z,45.40
2023-05-18T09:07:18.367Z,45.60
2023-05-18T09:09:50.951Z,46.00
2023-05-18T09:12:24.221Z,45.80
2023-05-18T09:14:55.082Z,45.80
2023-05-18T09:17:24.060Z,45.20
2023-05-18T09:19:52.351Z,44.40
2023-05-18T09:22:20.936Z,44.80
2023-05-18T09:24:50.106Z,44.20
2023-05-18T09:27:20.019Z,45.60
2023-05-18T09:29:58.045Z,46.00
2023-05-18T09:32:39.702Z,44.70
2023-05-18T09:35:29.052Z,45.30
2023-05-18T09:38:00.521Z,45.40
2023-05-18T09:40:32.861Z,45.90
2023-05-18T09:43:08.278Z,46.10
2023-05-18T09:45:43.711Z,45.80
2023-05-18T09:48:12.629Z,46.20
2023-05-18T09:50:41.041Z,45.70
2023-05-18T09:53:20.822Z,44.80
2023-05-18T09:55:50.297Z,45.10
2023-05-18T09:58:19.759Z,45.20
2023-05-18T10:00:51.732Z,45.20
2023-05-18T10:03:21.703Z,46.20
2023-05-18T10:05:50.651Z,46.40
2023-05-18T10:08:19.255Z,45.80
2023-05-18T10:10:50.178Z,44.90
2023-05-18T10:13:37.256Z,45.20
2023-05-18T10:16:09.339Z,46.60
2023-05-18T10:18:38.663Z,45.50
2023-05-18T10:21:08.179Z,45.00
2023-05-18T10:23:38.190Z,45.00
2023-05-18T10:26:07.933Z,45.00
2023-05-18T10:28:42.466Z,45.50
2023-05-18T10:31:12.634Z,46.20
2023-05-18T10:33:41.349Z,46.40
2023-05-18T10:36:11.550Z,46.10
2023-05-18T10:38:40.738Z,47.00
2023-05-18T10:41:10.934Z,45.70
2023-05-18T10:43:43.073Z,46.90
2023-05-18T10:46:16.004Z,45.90
2023-05-18T10:48:50.144Z,47.00
2023-05-18T10:51:21.472Z,47.00
2023-05-18T10:53:50.141Z,46.00
2023-05-18T10:56:19.666Z,46.50
2023-05-18T10:58:48.764Z,46.10
2023-05-18T11:01:19.765Z,46.30
2023-05-18T11:03:50.976Z,46.50
2023-05-18T11:06:25.163Z,46.40
2023-05-18T11:08:53.784Z,45.60
2023-05-18T11:11:26.222Z,45.10
2023-05-18T11:13:54.820Z,45.30
2023-05-18T11:16:36.401Z,46.40
2023-05-18T11:19:07.890Z,45.90
2023-05-18T11:21:54.285Z,47.80
2023-05-18T11:24:30.121Z,46.80
2023-05-18T11:27:00.462Z,47.70
2023-05-18T11:29:33.386Z,47.30
2023-05-18T11:32:05.075Z,47.10
2023-05-18T11:34:39.598Z,48.10
2023-05-18T11:37:10.918Z,46.60
2023-05-18T11:39:55.381Z,48.10
2023-05-18T11:42:33.957Z,47.80
2023-05-18T11:45:08.149Z,46.80
2023-05-18T11:47:39.949Z,47.00
2023-05-18T11:50:10.408Z,46.30
2023-05-18T11:52:49.481Z,45.50
2023-05-18T11:55:20.572Z,47.00
2023-05-18T11:57:53.404Z,45.90
2023-05-18T12:00:22.433Z,45.90
2023-05-18T12:02:52.998Z,45.80
2023-05-18T12:05:22.170Z,45.70
2023-05-18T12:07:54.774Z,45.30
2023-05-18T12:10:23.419Z,46.30
2023-05-18T12:12:53.912Z,44.60
2023-05-18T12:15:24.170Z,44.10
2023-05-18T12:17:53.876Z,44.00
2023-05-18T12:20:26.637Z,44.80
2023-05-18T12:22:56.282Z,44.80
2023-05-18T12:25:28.481Z,45.40
2023-05-18T12:28:00.599Z,45.70
2023-05-18T12:30:35.032Z,45.90
2023-05-18T12:33:19.172Z,45.90
2023-05-18T12:35:55.746Z,46.10
2023-05-18T12:38:50.957Z,45.90
2023-05-18T12:41:33.653Z,46.20
2023-05-18T12:44:20.748Z,46.00
2023-05-18T12:46:53.979Z,46.40
2023-05-18T12:49:23.733Z,45.80
2023-05-18T12:51:56.676Z,45.30
2023-05-18T12:54:29.730Z,45.60
2023-05-18T12:57:02.193Z,45.80
2023-05-18T12:59:32.817Z,45.50
2023-05-18T13:02:01.503Z,45.80
2023-05-18T13:04:37.669Z,45.90
2023-05-18T13:07:06.173Z,45.40
2023-05-18T13:09:34.390Z,44.60
2023-05-18T13:12:07.975Z,44.80
2023-05-18T13:14:39.431Z,44.80
2023-05-18T13:17:07.752Z,45.50
2023-05-18T13:19:37.703Z,45.00
2023-05-18T13:22:06.176Z,45.50
2023-05-18T13:24:34.355Z,46.00
2023-05-18T13:27:02.579Z,45.80
2023-05-18T13:29:30.777Z,45.50
2023-05-18T13:31:59.080Z,45.80
2023-05-18T13:34:27.282Z,45.20
2023-05-18T13:36:57.183Z,45.00
2023-05-18T13:39:25.489Z,45.50
2023-05-18T13:41:55.153Z,45.50
2023-05-18T13:44:23.856Z,46.80
2023-05-18T13:46:52.113Z,46.00
2023-05-18T13:49:20.282Z,47.00
2023-05-18T13:51:52.230Z,46.90
2023-05-18T13:54:21.851Z,47.10
2023-05-18T13:56:53.088Z,47.60
2023-05-18T13:59:22.015Z,47.30
2023-05-18T14:01:50.480Z,45.80
2023-05-18T14:04:18.898Z,46.80
2023-05-18T14:06:47.136Z,47.00
2023-05-18T14:09:15.496Z,46.40
2023-05-18T14:11:45.144Z,46.00
2023-05-18T14:14:13.458Z,46.20
2023-05-18T14:16:41.677Z,46.60
2023-05-18T14:19:12.640Z,47.30
2023-05-18T14:21:40.874Z,47.10
2023-05-18T14:24:10.460Z,47.50
2023-05-18T14:26:38.755Z,47.20
2023-05-18T14:29:08.350Z,47.40
2023-05-18T14:31:36.597Z,46.60
2023-05-18T14:34:06.064Z,47.30
2023-05-18T14:36:35.493Z,47.20
2023-05-18T14:39:06.829Z,47.20
2023-05-18T14:41:35.085Z,46.80
2023-05-18T14:44:03.865Z,46.90
2023-05-18T14:46:33.517Z,46.60
2023-05-18T14:49:02.955Z,47.20
2023-05-18T14:51:31.276Z,47.30
2023-05-18T14:53:59.462Z,47.10
2023-05-18T14:56:27.792Z,46.80
2023-05-18T14:58:56.354Z,46.60
2023-05-18T15:01:24.644Z,47.40
2023-05-18T15:03:54.326Z,47.00
2023-05-18T15:06:22.581Z,46.90
2023-05-18T15:08:53.592Z,46.30
2023-05-18T15:11:22.761Z,45.10
2023-05-18T15:13:51.979Z,45.80
2023-05-18T15:16:20.468Z,45.50
2023-05-18T15:18:48.764Z,43.70
2023-05-18T15:21:18.421Z,44.10
2023-05-18T15:23:48.776Z,44.50
2023-05-18T15:26:17.098Z,44.10
2023-05-18T15:28:47.203Z,44.40
2023-05-18T15:31:15.750Z,45.00
2023-05-18T15:33:52.678Z,45.70
2023-05-18T15:36:41.181Z,45.30
2023-05-18T15:39:24.966Z,45.30
2023-05-18T15:42:11.779Z,45.00
2023-05-18T15:44:58.829Z,45.10
2023-05-18T15:47:45.808Z,45.90
2023-05-18T15:50:32.912Z,45.10
2023-05-18T15:53:21.308Z,45.40
2023-05-18T15:55:50.814Z,44.70
2023-05-18T15:58:22.340Z,45.00
2023-05-18T16:00:53.961Z,44.60
2023-05-18T16:03:22.451Z,45.40
2023-05-18T16:05:53.153Z,45.90
2023-05-18T16:08:22.748Z,46.30
2023-05-18T16:10:51.051Z,47.00
2023-05-18T16:13:22.612Z,46.20
2023-05-18T16:15:50.792Z,45.20
2023-05-18T16:18:19.029Z,44.00
2023-05-18T16:20:47.233Z,44.00
2023-05-18T16:23:15.451Z,44.60
2023-05-18T16:25:45.062Z,43.70
2023-05-18T16:28:13.260Z,44.10
2023-05-18T16:30:41.422Z,45.00
2023-05-18T16:33:11.325Z,45.40
2023-05-18T16:35:45.181Z,44.30
2023-05-18T16:38:14.142Z,44.70
2023-05-18T16:40:44.017Z,44.00
2023-05-18T16:43:12.632Z,43.50
2023-05-18T16:45:42.398Z,43.60
2023-05-18T16:48:13.451Z,43.80
2023-05-18T16:50:41.667Z,43.30
2023-05-18T16:53:09.910Z,43.60
2023-05-18T16:55:38.337Z,44.10
2023-05-18T16:58:10.449Z,45.00
2023-05-18T17:00:38.920Z,45.00
2023-05-18T17:03:07.170Z,45.30
2023-05-18T17:05:35.816Z,45.90
2023-05-18T17:08:04.335Z,45.90
2023-05-18T17:10:35.356Z,46.30
2023-05-18T17:13:03.966Z,46.30
2023-05-18T17:15:33.854Z,45.90
2023-05-18T17:18:04.761Z,46.90
2023-05-18T17:20:33.308Z,46.50
2023-05-18T17:23:02.255Z,47.00
2023-05-18T17:25:30.491Z,46.40
2023-05-18T17:27:59.357Z,46.50
2023-05-18T17:30:27.699Z,46.20
2023-05-18T17:32:57.289Z,45.70
2023-05-18T17:35:25.586Z,46.10
2023-05-18T17:37:54.911Z,46.10
2023-05-18T17:40:23.578Z,46.10
2023-05-18T17:42:51.832Z,46.50
2023-05-18T17:45:21.571Z,46.60
2023-05-18T17:47:49.843Z,46.80
2023-05-18T17:50:22.165Z,46.60
2023-05-18T17:52:50.559Z,46.80
2023-05-18T17:55:21.409Z,46.90
2023-05-18T17:57:49.582Z,46.30
2023-05-18T18:00:18.720Z,46.10
2023-05-18T18:02:47.102Z,46.50
2023-05-18T18:05:15.632Z,46.80
2023-05-18T18:07:45.474Z,47.00
2023-05-18T18:10:13.866Z,47.20
2023-05-18T18:12:42.184Z,47.40
2023-05-18T18:15:11.706Z,47.80
2023-05-18T18:17:41.193Z,48.30
2023-05-18T18:20:10.697Z,47.80
2023-05-18T18:22:41.913Z,48.20
2023-05-18T18:25:13.345Z,48.40
2023-05-18T18:27:41.602Z,48.00
2023-05-18T18:30:14.076Z,47.90
2023-05-18T18:32:42.352Z,48.30
2023-05-18T18:35:13.249Z,47.90
2023-05-18T18:37:42.655Z,48.20
2023-05-18T18:40:16.557Z,47.70
2023-05-18T18:42:45.009Z,47.70
2023-05-18T18:45:13.555Z,48.00
2023-05-18T18:47:41.871Z,47.30
2023-05-18T18:50:13.360Z,47.40
2023-05-18T18:52:41.652Z,47.60
2023-05-18T18:55:09.987Z,47.30
2023-05-18T18:57:42.851Z,47.30
2023-05-18T19:00:12.117Z,48.10
2023-05-18T19:02:41.041Z,48.00
2023-05-18T19:05:12.626Z,47.30
2023-05-18T19:07:41.046Z,47.00
2023-05-18T19:10:10.171Z,47.30
2023-05-18T19:12:39.810Z,47.30
2023-05-18T19:15:10.267Z,47.20
2023-05-18T19:17:38.887Z,47.10
2023-05-18T19:20:10.271Z,47.70
2023-05-18T19:22:40.615Z,47.20
2023-05-18T19:25:09.554Z,47.50
2023-05-18T19:27:39.668Z,47.60
2023-05-18T19:30:10.684Z,48.00
2023-05-18T19:32:41.923Z,47.40
2023-05-18T19:35:10.160Z,47.80
2023-05-18T19:37:38.669Z,47.90
2023-05-18T19:40:10.369Z,48.00
2023-05-18T19:42:40.490Z,47.90
2023-05-18T19:45:10.282Z,48.30
2023-05-18T19:47:39.525Z,48.50
2023-05-18T19:50:08.833Z,48.60
2023-05-18T19:52:37.072Z,48.50
2023-05-18T19:55:06.061Z,48.50
2023-05-18T19:57:34.349Z,49.10
2023-05-18T20:00:05.777Z,49.20
2023-05-18T20:02:41.152Z,49.50
2023-05-18T20:05:12.608Z,49.40
2023-05-18T20:07:41.304Z,49.50
2023-05-18T20:10:09.563Z,49.40
2023-05-18T20:12:37.801Z,49.50
2023-05-18T20:15:08.890Z,49.50
2023-05-18T20:17:38.209Z,49.60
2023-05-18T20:20:08.121Z,49.30
2023-05-18T20:22:36.360Z,49.60
2023-05-18T20:25:05.494Z,49.90
2023-05-18T20:27:33.846Z,49.90
2023-05-18T20:30:02.138Z,49.50
2023-05-18T20:32:33.117Z,49.40
2023-05-18T20:35:01.427Z,49.50
2023-05-18T20:37:34.509Z,49.40
2023-05-18T20:40:07.226Z,49.80
2023-05-18T20:42:40.234Z,50.00
2023-05-18T20:45:09.405Z,49.70
2023-05-18T20:47:41.733Z,49.40
2023-05-18T20:50:10.778Z,49.40
2023-05-18T20:52:39.048Z,49.60
2023-05-18T20:55:09.214Z,49.90
2023-05-18T20:57:42.288Z,49.40
2023-05-18T21:00:12.326Z,49.60
2023-05-18T21:02:42.502Z,49.50
2023-05-18T21:05:10.990Z,50.00
2023-05-18T21:07:39.987Z,49.80
2023-05-18T21:10:08.977Z,50.10
2023-05-18T21:12:38.880Z,49.90
2023-05-18T21:15:08.296Z,49.30
2023-05-18T21:17:36.628Z,49.30
2023-05-18T21:20:09.876Z,49.10
2023-05-18T21:22:38.114Z,49.20
2023-05-18T21:25:07.322Z,49.30
2023-05-18T21:27:37.311Z,49.00
2023-05-18T21:30:06.509Z,48.80
2023-05-18T21:32:35.193Z,48.70
2023-05-18T21:35:03.610Z,48.90
2023-05-18T21:37:33.312Z,49.20
2023-05-18T21:40:01.561Z,48.40
2023-05-18T21:42:30.266Z,48.70
2023-05-18T21:44:59.080Z,48.70
2023-05-18T21:47:27.385Z,48.50
2023-05-18T21:50:01.550Z,48.60
2023-05-18T21:52:32.740Z,48.70
2023-05-18T21:55:02.714Z,48.40
2023-05-18T21:57:30.929Z,47.90
2023-05-18T21:59:59.505Z,47.40
2023-05-18T22:02:28.028Z,48.40
2023-05-18T22:04:58.526Z,47.70
2023-05-18T22:07:26.936Z,47.70
2023-05-18T22:09:55.210Z,47.30
2023-05-18T22:12:24.805Z,47.70
2023-05-18T22:14:53.058Z,47.80
2023-05-18T22:17:21.778Z,47.40
2023-05-18T22:19:50.663Z,47.80
2023-05-18T22:22:29.767Z,47.50
2023-05-18T22:24:59.182Z,47.40
2023-05-18T22:27:30.005Z,47.30
2023-05-18T22:29:58.689Z,47.10
2023-05-18T22:32:27.016Z,47.20
2023-05-18T22:34:55.997Z,47.20
2023-05-18T22:37:25.292Z,47.00
2023-05-18T22:39:53.797Z,47.30
2023-05-18T22:42:22.384Z,47.10
2023-05-18T22:44:52.112Z,47.00
2023-05-18T22:47:23.577Z,47.10
2023-05-18T22:49:52.194Z,47.20
2023-05-18T22:52:20.465Z,47.10
2023-05-18T22:54:50.877Z,47.00
2023-05-18T22:57:19.250Z,47.00
2023-05-18T22:59:47.654Z,47.10
2023-05-18T23:02:17.298Z,47.20
2023-05-18T23:04:45.694Z,47.20
2023-05-18T23:07:13.950Z,47.40
2023-05-18T23:09:42.312Z,48.20
2023-05-18T23:12:11.641Z,47.80
2023-05-18T23:14:39.939Z,47.70
2023-05-18T23:17:11.373Z,47.50
2023-05-18T23:19:43.676Z,47.60
2023-05-18T23:22:12.065Z,47.40
2023-05-18T23:24:40.514Z,47.30
2023-05-18T23:27:08.753Z,47.40
2023-05-18T23:29:37.071Z,47.00
2023-05-18T23:32:05.941Z,46.40
2023-05-18T23:34:34.600Z,46.60
2023-05-18T23:37:06.835Z,47.10
2023-05-18T23:39:35.992Z,47.40
2023-05-18T23:42:04.779Z,46.60
2023-05-18T23:44:33.504Z,47.10
2023-05-18T23:47:02.614Z,47.00
2023-05-18T23:49:31.354Z,47.50
2023-05-18T23:52:03.829Z,46.80
2023-05-18T23:54:32.646Z,46.40
2023-05-18T23:57:03.149Z,46.50
2023-05-18T23:59:32.417Z,46.60
